Terminal Aerodrome Forecast
Issued by NWS Paducah, KY

Home | Current Version | Previous Version | Text Only | Print | Product List | Glossary On
Versions: 1 2 3 4 5 6 7 8 9 10 11 12 13 14 15 16
000
FTUS43 KPAH 232000 AAB
TAFEVV
TAF AMD
KEVV 232042Z 2321/2418 33008KT P6SM SCT020 BKN040
      TEMPO 2321/2324 BKN020
     FM240000 36007KT P6SM BKN035
     FM241500 03008KT P6SM SCT040=

USA.gov is the U.S. government's official web portal to all federal, state and local government web resources and services.